Scroll for more >

River gauges, storages, and weirs in the Murray–Darling Basin

Typesort descending Location River Water level Flow Volume Release Water temp Salinity Rainfall
River Gauge Lake Alexandrina Murray 0.58 m 29/03/2017 5:45 Not measured 1504 GL 29/03/2017 5:45 Not measured Not measured Not measured Not measured Full data
River Gauge Gulpa Creek Offtake Murray 2.49 m 29/03/2017 5:45 337 ML/Day 29/03/2017 5:45 Not measured Not measured Not measured Not measured Not measured Full data
River Gauge Rochester Campaspe 1.8 m 29/03/2017 5:45 144 ML/Day 29/03/2017 5:45 Not measured Not measured 18.5°C 29/03/2017 5:45 393.5 μS/cm 29/03/2017 5:45 0.0 mm 28/03/2017 9:00 Full data
River Gauge Albury (Union Bridge) Murray 2.36 m 29/03/2017 5:45 Not measured Not measured Not measured 21.2°C 29/03/2017 5:45 57.4 μS/cm 29/03/2017 5:45 Not measured Full data
River Gauge Hinnomunjie Mitta 0.61 m 29/03/2017 5:15 320 ML/Day 29/03/2017 5:15 Not measured Not measured 16.9°C 29/03/2017 5:15 46.6 μS/cm 29/03/2017 5:15 9.8 mm 28/03/2017 9:00 Full data
River Gauge Rufus River Murray 21.44 m 28/03/2017 7:45 Not measured Not measured 5091.3 ML/d28/03/2017 7:45 Not measured 285.1 μS/cm 29/03/2017 2:45 Not measured Full data
River Gauge Lake Albert Murray 0.6 m 29/03/2017 5:45 Not measured 245 GL 29/03/2017 5:45 Not measured Not measured Not measured Not measured Full data
River Gauge Echuca Wharf Murray 87.08 m 28/03/2017 7:45 Not measured Not measured Not measured Not measured Not measured Not measured Full data
River Gauge Wakool Canal Wakool 0.62 m 29/03/2017 5:45 Not measured Not measured 605.0 ML/d28/03/2017 8:45 Not measured Not measured Not measured Full data
River Gauge Wilcania Darling 0.05 m 29/03/2017 5:45 1 ML/Day 29/03/2017 5:45 Not measured Not measured 22.4°C 29/03/2017 5:45 599.4 μS/cm 29/03/2017 5:45 Not measured Full data
River Gauge Corowa Murray 2.68 m 29/03/2017 6:15 12076 ML/Day 29/03/2017 6:15 Not measured Not measured 21.7°C 29/03/2017 6:15 55.9 μS/cm 29/03/2017 6:15 Not measured Full data
River Gauge Colemans Mitta 1 m 29/03/2017 7:00 301 ML/Day 29/03/2017 7:00 Not measured Not measured 12.6°C 29/03/2017 5:45 38.9 μS/cm 29/03/2017 5:45 Not measured Full data
River Gauge Murray Bridge Murray 0.54 m 29/03/2017 4:45 Not measured Not measured Not measured 22.8°C 29/03/2017 5:45 373.3 μS/cm 29/03/2017 4:45 Not measured Full data
River Gauge Tauwitchere Barrage Murray 0.6 m 29/03/2017 4:45 Not measured Not measured Not measured Not measured Not measured Not measured Full data
River Gauge Biggara Murray 0.37 m 29/03/2017 6:15 361 ML/Day 29/03/2017 6:15 Not measured Not measured 17.2°C 29/03/2017 6:15 58.2 μS/cm 29/03/2017 6:15 11.4 mm 28/03/2017 9:00 Full data
River Gauge Colignan Murray 1.78 m 29/03/2017 5:30 5692 ML/Day 29/03/2017 5:30 Not measured Not measured 24.0°C 29/03/2017 5:30 104.2 μS/cm 29/03/2017 5:30 Not measured Full data
River Gauge Tallandoon Mitta 1.43 m 29/03/2017 5:45 662 ML/Day 29/03/2017 5:45 Not measured Not measured 18.7°C 29/03/2017 5:45 58.5 μS/cm 29/03/2017 5:45 Not measured Full data
River Gauge Mundoo Barrage Murray 0.54 m 28/03/2017 7:45 Not measured Not measured Not measured Not measured Not measured Not measured Full data
River Gauge Bringenbrong Bridge Murray 1.34 m 29/03/2017 6:15 2745 ML/Day 29/03/2017 6:15 Not measured Not measured Not measured Not measured Not measured Full data
River Gauge Weir 32 Upstream Darling 1.85 m 29/03/2017 5:45 1509 ML/Day 29/03/2017 5:45 Not measured Not measured 22.1°C 29/03/2017 5:45 528.7 μS/cm 29/03/2017 5:45 Not measured Full data
River Gauge Yarrawonga Main Channel Murray 124.29 m 29/03/2017 5:45 Not measured Not measured 2096.9 ML/d28/03/2017 7:45 Not measured Not measured Not measured Full data
River Gauge Balranald Murrumbidgee 1.3 m 29/03/2017 5:45 866 ML/Day 29/03/2017 5:45 Not measured Not measured 23.8°C 29/03/2017 5:45 139.3 μS/cm 29/03/2017 5:45 Not measured Full data
River Gauge Flow to South Australia Murray Not measured Not measured Not measured 9922.7 ML/d28/03/2017 7:45 Not measured Not measured Not measured Full data
River Gauge Torrumbarry Headworks Murray 85.78 m 29/03/2017 5:45 Not measured Not measured 3241.8 ML/d29/03/2017 5:45 Not measured Not measured Not measured Full data
River Gauge Pinegrove Murray 1.16 m 29/03/2017 6:15 229 ML/Day 29/03/2017 6:15 Not measured Not measured 19.3°C 29/03/2017 6:15 102.5 μS/cm 29/03/2017 6:15 6.6 mm 28/03/2017 9:00 Full data
River Gauge Burtundy Darling 1.21 m 29/03/2017 6:15 1531 ML/Day 29/03/2017 6:15 Not measured Not measured 23.8°C 29/03/2017 6:15 526.7 μS/cm 29/03/2017 6:15 Not measured Full data
River Gauge Mulwala Canal Murray Not measured Not measured Not measured 3321.6 ML/d28/03/2017 7:45 Not measured Not measured Not measured Full data
River Gauge Peechelba Ovens 126.53 m 29/03/2017 5:45 601 ML/Day 29/03/2017 5:45 Not measured Not measured 21.2°C 29/03/2017 5:45 116.0 μS/cm 29/03/2017 5:45 Not measured Full data
River Gauge Stoney Crossing Murray 1.51 m 29/03/2017 5:45 627 ML/Day 29/03/2017 5:45 Not measured 620.1 ML/d28/03/2017 7:45 23.7°C 29/03/2017 5:45 383.6 μS/cm 29/03/2017 5:45 Not measured Full data
River Gauge Jingellic Murray 1.77 m 29/03/2017 5:45 4799 ML/Day 29/03/2017 5:45 Not measured Not measured 20.0°C 29/03/2017 5:45 69.2 μS/cm 29/03/2017 5:45 9.4 mm 28/03/2017 9:00 Full data
River Gauge McCoy Bridge Goulburn 2.12 m 28/03/2017 7:45 2090 ML/Day 28/03/2017 7:45 Not measured Not measured 21.9°C 28/03/2017 7:45 58.2 μS/cm 28/03/2017 7:45 Not measured Full data
River Gauge Tocumwal Murray 2.04 m 29/03/2017 5:15 7019 ML/Day 29/03/2017 5:15 Not measured Not measured 22.5°C 29/03/2017 5:15 83.1 μS/cm 29/03/2017 5:15 Not measured Full data
River Gauge Edward Escape Wakool 0.6 m 29/03/2017 5:45 421 ML/Day 29/03/2017 5:45 Not measured Not measured 22.9°C 29/03/2017 5:45 64.7 μS/cm 29/03/2017 5:45 Not measured Full data
River Gauge Swan Hill Murray 1.13 m 29/03/2017 4:15 5588 ML/Day 29/03/2017 4:15 Not measured Not measured 23.4°C 29/03/2017 4:15 77.8 μS/cm 29/03/2017 4:15 Not measured Full data
River Gauge Bandiana Kiewa 0.94 m 29/03/2017 5:45 454 ML/Day 29/03/2017 5:45 Not measured Not measured 19.7°C 29/03/2017 5:45 52.8 μS/cm 29/03/2017 5:45 Not measured Full data
River Gauge Morgan Downstream Murray Not measured Not measured Not measured 5966.3 ML/d29/03/2017 5:45 Not measured Not measured Not measured Full data
River Gauge Frenchman Creek Murray 27.36 m 28/03/2017 7:45 Not measured Not measured 700.0 ML/d28/03/2017 7:45 Not measured Not measured Not measured Full data
River Gauge Edward River Offtake Murray 2.44 m 29/03/2017 6:15 1618 ML/Day 29/03/2017 6:15 Not measured Not measured 23.1°C 29/03/2017 5:45 47.8 μS/cm 29/03/2017 5:45 Not measured Full data
River Gauge Wakool Junction Murray 2.65 m 29/03/2017 5:45 5792 ML/Day 29/03/2017 5:45 Not measured Not measured 23.1°C 29/03/2017 5:45 148.0 μS/cm 29/03/2017 5:45 Not measured Full data
River Gauge Doctors Point Murray 3.35 m 29/03/2017 5:45 19813 ML/Day 29/03/2017 5:45 Not measured Not measured 21.5°C 29/03/2017 5:45 51.3 μS/cm 29/03/2017 5:45 Not measured Full data
River Gauge Kerang Loddon 0.36 m 29/03/2017 5:45 175 ML/Day 29/03/2017 5:45 Not measured Not measured 20.8°C 29/03/2017 5:45 119.5 μS/cm 29/03/2017 5:45 Not measured Full data
Storage Lake Victoria Murray 23.96 m 29/03/2017 4:45 Not measured 340 GL 29/03/2017 4:45 Not measured 22.7°C 29/03/2017 5:45 203.6 μS/cm 29/03/2017 4:45 Not measured Full data
Storage Dartmouth Dam Mitta 471.83 m 29/03/2017 7:00 Not measured 2994 GL 29/03/2017 7:00 Not measured Not measured Not measured Not measured Full data
Storage Menindee Lakes Darling Not measured Not measured 912 GL 28/03/2017 7:45 Not measured Not measured Not measured Not measured Full data
Storage Hume Dam Murray 186.37 m 29/03/2017 6:15 Not measured 1995 GL 29/03/2017 6:15 13884.0 ML/d28/03/2017 8:00 Not measured Not measured 5.4 mm 28/03/2017 9:00 Full data
Weirs Lock 1 Downstream Murray 0.69 m 29/03/2017 4:45 Not measured Not measured 7513.1 ML/d28/03/2017 7:45 Not measured Not measured Not measured Full data
Weirs Steven's Weir Downstream Wakool 1.54 m 29/03/2017 5:45 1316 ML/Day 29/03/2017 5:45 Not measured Not measured 23.6°C 29/03/2017 5:45 50.4 μS/cm 29/03/2017 5:45 0.0 mm 27/03/2017 9:00 Full data
Weirs Lock 5 Upstream Murray 16.33 m 29/03/2017 5:45 Not measured Not measured Not measured 24.9°C 29/03/2017 4:45 324.5 μS/cm 29/03/2017 4:45 Not measured Full data
Weirs Euston Weir Upstream Murray 47.45 m 28/03/2017 7:45 Not measured 35 GL 28/03/2017 7:45 Not measured Not measured Not measured 0.0 mm 27/03/2017 9:00 Full data
Weirs Lock 1 Upstream Murray 3.12 m 29/03/2017 5:45 Not measured Not measured Not measured 23.8°C 29/03/2017 5:45 525.3 μS/cm 29/03/2017 4:45 Not measured Full data
Weirs Lock 4 Downstream Murray 10.87 m 29/03/2017 4:45 Not measured Not measured Not measured Not measured Not measured Not measured Full data
Weirs Euston Weir Downstream Murray 43.13 m 29/03/2017 5:45 5597 ML/Day 29/03/2017 5:45 Not measured Not measured 24.2°C 29/03/2017 5:45 121.8 μS/cm 29/03/2017 5:45 Not measured Full data
Weirs Yarrawonga Weir Upstream Murray 124.69 m 29/03/2017 6:00 Not measured Not measured Not measured Not measured Not measured 0.6 mm 28/03/2017 9:00 Full data
Weirs Lock 7 Downstream Murray 20.83 m 29/03/2017 4:45 Not measured Not measured Not measured Not measured Not measured Not measured Full data
Weirs Torrumbarry Weir Downstream Murray 1.99 m 29/03/2017 5:45 5478 ML/Day 29/03/2017 5:45 Not measured Not measured 23.8°C 29/03/2017 5:45 70.1 μS/cm 29/03/2017 5:45 Not measured Full data
Weirs Lock 4 Upstream Murray 13.23 m 29/03/2017 4:45 Not measured Not measured Not measured Not measured Not measured Not measured Full data
Weirs Mildura Weir downstream Murray 31.1 m 29/03/2017 5:30 Not measured Not measured Not measured 25.6°C 29/03/2017 5:30 177.1 μS/cm 29/03/2017 5:30 Not measured Full data
Weirs Yarrawonga Weir Downstream Murray 1.32 m 29/03/2017 6:00 7715 ML/Day 29/03/2017 6:00 Not measured Not measured 22.5°C 29/03/2017 5:45 65.5 μS/cm 29/03/2017 5:45 Not measured Full data
Weirs Lock 7 Upstream Murray 22.05 m 29/03/2017 4:45 Not measured Not measured Not measured 25.4°C 15/03/2017 15:45 319.0 μS/cm 23/03/2017 7:45 Not measured Full data
Weirs Torrumbarry Weir Upstream Murray 86.05 m 28/03/2017 7:45 Not measured 37 GL 28/03/2017 7:45 Not measured 24.3°C 28/03/2017 7:45 66.0 μS/cm 28/03/2017 7:45 0.0 mm 27/03/2017 9:00 Full data
Weirs Lock 3 Downstream Murray 6.48 m 29/03/2017 4:45 Not measured Not measured Not measured Not measured Not measured Not measured Full data
Weirs Lock 3 Upstream Murray 9.84 m 29/03/2017 5:45 Not measured Not measured Not measured Not measured Not measured Not measured Full data
Weirs Lock 9 Downstream Murray 24.32 m 29/03/2017 5:45 Not measured Not measured Not measured Not measured Not measured Not measured Full data
Weirs Wentworth Weir Murray 27.62 m 29/03/2017 5:45 Not measured Not measured 5896.2 ML/d28/03/2017 7:45 Not measured 201.0 μS/cm 28/03/2017 7:45 0.0 mm 27/03/2017 9:00 Full data
Weirs Lock 2 Downstream Murray 3.49 m 29/03/2017 5:45 Not measured Not measured Not measured Not measured Not measured Not measured Full data
Weirs Lock 9 Upstream Murray 27.32 m 28/03/2017 7:45 Not measured Not measured Not measured 24.7°C 29/03/2017 5:45 314.4 μS/cm 29/03/2017 5:45 Not measured Full data
Weirs Lock 6 Downstream Murray 16.57 m 29/03/2017 5:45 Not measured Not measured Not measured Not measured Not measured Not measured Full data
Weirs Lock 2 Upstream Murray 6.11 m 29/03/2017 4:45 Not measured Not measured Not measured 24.4°C 29/03/2017 5:45 484.8 μS/cm 29/03/2017 4:45 Not measured Full data
Weirs Lock 8 Upstream Murray 24.26 m 29/03/2017 5:45 Not measured Not measured Not measured 24.8°C 29/03/2017 5:45 313.5 μS/cm 29/03/2017 4:45 Not measured Full data
Weirs Lock 6 Upstream Murray 19.26 m 29/03/2017 4:45 Not measured Not measured Not measured 24.3°C 29/03/2017 4:45 293.7 μS/cm 29/03/2017 4:45 Not measured Full data
Weirs Steven's Weir Upstream Wakool 4.62 m 29/03/2017 6:15 Not measured Not measured Not measured Not measured Not measured Not measured Full data
Weirs Lock 5 Downstream Murray 13.54 m 29/03/2017 4:45 Not measured Not measured Not measured Not measured Not measured Not measured Full data